sensor_id;sensor_type;location;lat;lon;timestamp;P1;durP1;ratioP1;P2;durP2;ratioP2
68178;SDS011;54998;42.656;23.382;2022-11-20T00:01:45;14.05;;;7.53;;
68178;SDS011;54998;42.656;23.382;2022-11-20T00:04:11;13.82;;;7.10;;
68178;SDS011;54998;42.656;23.382;2022-11-20T00:06:37;12.27;;;7.72;;
68178;SDS011;54998;42.656;23.382;2022-11-20T00:09:03;11.48;;;7.38;;
68178;SDS011;54998;42.656;23.382;2022-11-20T00:11:30;11.43;;;6.47;;
68178;SDS011;54998;42.656;23.382;2022-11-20T00:16:32;9.95;;;5.72;;
68178;SDS011;54998;42.656;23.382;2022-11-20T00:21:25;11.60;;;6.30;;
68178;SDS011;54998;42.656;23.382;2022-11-20T00:23:52;8.57;;;4.25;;
68178;SDS011;54998;42.656;23.382;2022-11-20T00:26:19;11.32;;;5.95;;
68178;SDS011;54998;42.656;23.382;2022-11-20T00:28:49;12.02;;;5.80;;
68178;SDS011;54998;42.656;23.382;2022-11-20T00:31:16;9.18;;;5.38;;
68178;SDS011;54998;42.656;23.382;2022-11-20T00:33:43;10.02;;;5.30;;
68178;SDS011;54998;42.656;23.382;2022-11-20T00:38:36;4.28;;;2.53;;
68178;SDS011;54998;42.656;23.382;2022-11-20T00:41:03;5.75;;;3.45;;
68178;SDS011;54998;42.656;23.382;2022-11-20T00:43:30;5.20;;;3.38;;
68178;SDS011;54998;42.656;23.382;2022-11-20T00:45:59;7.07;;;3.17;;
68178;SDS011;54998;42.656;23.382;2022-11-20T00:48:26;6.80;;;3.60;;
68178;SDS011;54998;42.656;23.382;2022-11-20T00:50:52;8.32;;;4.93;;
68178;SDS011;54998;42.656;23.382;2022-11-20T00:53:18;7.80;;;4.78;;
68178;SDS011;54998;42.656;23.382;2022-11-20T00:55:51;6.40;;;4.50;;
68178;SDS011;54998;42.656;23.382;2022-11-20T00:58:18;5.78;;;3.30;;
68178;SDS011;54998;42.656;23.382;2022-11-20T01:00:43;9.75;;;4.03;;
68178;SDS011;54998;42.656;23.382;2022-11-20T01:03:09;8.23;;;4.53;;
68178;SDS011;54998;42.656;23.382;2022-11-20T01:05:34;5.88;;;3.22;;
68178;SDS011;54998;42.656;23.382;2022-11-20T01:08:00;6.10;;;2.90;;
68178;SDS011;54998;42.656;23.382;2022-11-20T01:10:26;6.60;;;3.33;;
68178;SDS011;54998;42.656;23.382;2022-11-20T01:12:51;5.25;;;2.90;;
68178;SDS011;54998;42.656;23.382;2022-11-20T01:15:36;10.23;;;4.60;;
68178;SDS011;54998;42.656;23.382;2022-11-20T01:18:02;10.32;;;3.85;;
68178;SDS011;54998;42.656;23.382;2022-11-20T01:20:27;6.75;;;2.55;;
68178;SDS011;54998;42.656;23.382;2022-11-20T01:22:53;7.45;;;3.35;;
68178;SDS011;54998;42.656;23.382;2022-11-20T01:25:18;5.18;;;2.80;;
68178;SDS011;54998;42.656;23.382;2022-11-20T01:27:43;6.00;;;3.20;;
68178;SDS011;54998;42.656;23.382;2022-11-20T01:30:09;5.07;;;2.90;;
68178;SDS011;54998;42.656;23.382;2022-11-20T01:32:34;5.97;;;3.33;;
68178;SDS011;54998;42.656;23.382;2022-11-20T01:35:00;11.77;;;4.10;;
68178;SDS011;54998;42.656;23.382;2022-11-20T01:37:25;5.07;;;3.25;;
68178;SDS011;54998;42.656;23.382;2022-11-20T01:39:51;5.88;;;3.25;;
68178;SDS011;54998;42.656;23.382;2022-11-20T01:42:16;5.70;;;3.30;;
68178;SDS011;54998;42.656;23.382;2022-11-20T01:45:00;6.22;;;3.10;;
68178;SDS011;54998;42.656;23.382;2022-11-20T01:47:42;6.35;;;3.97;;
68178;SDS011;54998;42.656;23.382;2022-11-20T01:50:15;6.38;;;3.75;;
68178;SDS011;54998;42.656;23.382;2022-11-20T01:52:52;5.43;;;3.10;;
68178;SDS011;54998;42.656;23.382;2022-11-20T01:55:25;6.03;;;3.42;;
68178;SDS011;54998;42.656;23.382;2022-11-20T01:57:55;5.68;;;3.60;;
68178;SDS011;54998;42.656;23.382;2022-11-20T02:00:21;7.78;;;3.55;;
68178;SDS011;54998;42.656;23.382;2022-11-20T02:02:51;7.18;;;4.10;;
68178;SDS011;54998;42.656;23.382;2022-11-20T02:05:38;6.85;;;3.53;;
68178;SDS011;54998;42.656;23.382;2022-11-20T02:08:10;9.63;;;3.22;;
68178;SDS011;54998;42.656;23.382;2022-11-20T02:10:35;6.18;;;3.78;;
68178;SDS011;54998;42.656;23.382;2022-11-20T02:13:01;6.95;;;3.70;;
68178;SDS011;54998;42.656;23.382;2022-11-20T02:15:46;9.82;;;4.20;;
68178;SDS011;54998;42.656;23.382;2022-11-20T02:18:13;7.10;;;3.60;;
68178;SDS011;54998;42.656;23.382;2022-11-20T02:20:44;2.75;;;1.20;;
68178;SDS011;54998;42.656;23.382;2022-11-20T02:23:12;7.68;;;3.22;;
68178;SDS011;54998;42.656;23.382;2022-11-20T02:25:39;6.30;;;3.33;;
68178;SDS011;54998;42.656;23.382;2022-11-20T02:28:06;6.47;;;3.55;;
68178;SDS011;54998;42.656;23.382;2022-11-20T02:30:32;4.95;;;2.20;;
68178;SDS011;54998;42.656;23.382;2022-11-20T02:32:58;7.50;;;2.80;;
68178;SDS011;54998;42.656;23.382;2022-11-20T02:37:50;5.68;;;3.00;;
68178;SDS011;54998;42.656;23.382;2022-11-20T02:40:18;5.07;;;2.50;;
68178;SDS011;54998;42.656;23.382;2022-11-20T02:42:44;4.65;;;1.83;;
68178;SDS011;54998;42.656;23.382;2022-11-20T02:45:09;5.22;;;2.70;;
68178;SDS011;54998;42.656;23.382;2022-11-20T02:47:35;6.20;;;1.77;;
68178;SDS011;54998;42.656;23.382;2022-11-20T02:50:00;2.85;;;1.83;;
68178;SDS011;54998;42.656;23.382;2022-11-20T02:52:26;3.15;;;0.90;;
68178;SDS011;54998;42.656;23.382;2022-11-20T02:54:51;2.72;;;1.30;;
68178;SDS011;54998;42.656;23.382;2022-11-20T02:57:17;3.55;;;1.48;;
68178;SDS011;54998;42.656;23.382;2022-11-20T02:59:43;2.78;;;1.52;;
68178;SDS011;54998;42.656;23.382;2022-11-20T03:02:08;1.92;;;1.00;;
68178;SDS011;54998;42.656;23.382;2022-11-20T03:04:33;2.25;;;0.90;;
68178;SDS011;54998;42.656;23.382;2022-11-20T03:06:59;3.63;;;0.70;;
68178;SDS011;54998;42.656;23.382;2022-11-20T03:09:24;5.10;;;1.20;;
68178;SDS011;54998;42.656;23.382;2022-11-20T03:11:50;1.52;;;0.90;;
68178;SDS011;54998;42.656;23.382;2022-11-20T03:14:15;2.80;;;1.10;;
68178;SDS011;54998;42.656;23.382;2022-11-20T03:16:41;1.63;;;0.73;;
68178;SDS011;54998;42.656;23.382;2022-11-20T03:19:06;2.42;;;0.77;;
68178;SDS011;54998;42.656;23.382;2022-11-20T03:21:35;2.85;;;0.80;;
68178;SDS011;54998;42.656;23.382;2022-11-20T03:24:01;1.48;;;0.90;;
68178;SDS011;54998;42.656;23.382;2022-11-20T03:26:27;2.30;;;0.98;;
68178;SDS011;54998;42.656;23.382;2022-11-20T03:28:54;3.63;;;1.10;;
68178;SDS011;54998;42.656;23.382;2022-11-20T03:31:22;2.80;;;0.95;;
68178;SDS011;54998;42.656;23.382;2022-11-20T03:33:49;2.97;;;1.10;;
68178;SDS011;54998;42.656;23.382;2022-11-20T03:36:16;4.28;;;1.20;;
68178;SDS011;54998;42.656;23.382;2022-11-20T03:38:42;2.30;;;0.88;;
68178;SDS011;54998;42.656;23.382;2022-11-20T03:41:09;2.75;;;0.80;;
68178;SDS011;54998;42.656;23.382;2022-11-20T03:43:54;2.50;;;1.17;;
68178;SDS011;54998;42.656;23.382;2022-11-20T03:46:25;1.83;;;1.20;;
68178;SDS011;54998;42.656;23.382;2022-11-20T03:48:51;1.73;;;0.70;;
68178;SDS011;54998;42.656;23.382;2022-11-20T03:51:19;3.22;;;0.88;;
68178;SDS011;54998;42.656;23.382;2022-11-20T03:53:46;2.35;;;0.93;;
68178;SDS011;54998;42.656;23.382;2022-11-20T03:56:13;2.20;;;1.00;;
68178;SDS011;54998;42.656;23.382;2022-11-20T03:58:41;2.85;;;0.88;;
68178;SDS011;54998;42.656;23.382;2022-11-20T04:03:41;1.65;;;0.73;;
68178;SDS011;54998;42.656;23.382;2022-11-20T04:06:12;1.30;;;0.95;;
68178;SDS011;54998;42.656;23.382;2022-11-20T04:08:41;3.83;;;1.17;;
68178;SDS011;54998;42.656;23.382;2022-11-20T04:11:14;2.80;;;0.70;;
68178;SDS011;54998;42.656;23.382;2022-11-20T04:13:45;2.92;;;1.00;;
68178;SDS011;54998;42.656;23.382;2022-11-20T04:16:13;1.40;;;0.75;;
68178;SDS011;54998;42.656;23.382;2022-11-20T04:18:39;2.03;;;0.90;;
68178;SDS011;54998;42.656;23.382;2022-11-20T04:21:04;2.75;;;1.35;;
68178;SDS011;54998;42.656;23.382;2022-11-20T04:23:30;3.97;;;1.00;;
68178;SDS011;54998;42.656;23.382;2022-11-20T04:26:07;1.85;;;0.60;;
68178;SDS011;54998;42.656;23.382;2022-11-20T04:28:34;2.25;;;1.02;;
68178;SDS011;54998;42.656;23.382;2022-11-20T04:31:04;2.25;;;1.13;;
68178;SDS011;54998;42.656;23.382;2022-11-20T04:33:34;2.88;;;0.88;;
68178;SDS011;54998;42.656;23.382;2022-11-20T04:36:01;2.00;;;1.00;;
68178;SDS011;54998;42.656;23.382;2022-11-20T04:38:29;2.58;;;1.38;;
68178;SDS011;54998;42.656;23.382;2022-11-20T04:40:58;2.10;;;0.80;;
68178;SDS011;54998;42.656;23.382;2022-11-20T04:43:27;2.75;;;1.00;;
68178;SDS011;54998;42.656;23.382;2022-11-20T04:45:54;2.45;;;0.98;;
68178;SDS011;54998;42.656;23.382;2022-11-20T04:48:21;3.42;;;1.15;;
68178;SDS011;54998;42.656;23.382;2022-11-20T04:50:47;1.77;;;1.00;;
68178;SDS011;54998;42.656;23.382;2022-11-20T04:53:12;2.50;;;0.90;;
68178;SDS011;54998;42.656;23.382;2022-11-20T04:55:38;2.95;;;1.02;;
68178;SDS011;54998;42.656;23.382;2022-11-20T04:58:03;2.75;;;1.10;;
68178;SDS011;54998;42.656;23.382;2022-11-20T05:00:28;2.25;;;1.10;;
68178;SDS011;54998;42.656;23.382;2022-11-20T05:02:54;2.45;;;0.80;;
68178;SDS011;54998;42.656;23.382;2022-11-20T05:05:19;2.97;;;1.02;;
68178;SDS011;54998;42.656;23.382;2022-11-20T05:07:44;2.42;;;0.90;;
68178;SDS011;54998;42.656;23.382;2022-11-20T05:10:10;2.00;;;1.23;;
68178;SDS011;54998;42.656;23.382;2022-11-20T05:12:35;3.95;;;1.05;;
68178;SDS011;54998;42.656;23.382;2022-11-20T05:15:01;2.25;;;1.10;;
68178;SDS011;54998;42.656;23.382;2022-11-20T05:17:26;0.82;;;0.63;;
68178;SDS011;54998;42.656;23.382;2022-11-20T05:19:51;1.88;;;1.10;;
68178;SDS011;54998;42.656;23.382;2022-11-20T05:22:17;1.98;;;0.85;;
68178;SDS011;54998;42.656;23.382;2022-11-20T05:24:42;1.25;;;0.70;;
68178;SDS011;54998;42.656;23.382;2022-11-20T05:27:07;1.05;;;0.90;;
68178;SDS011;54998;42.656;23.382;2022-11-20T05:29:33;2.63;;;0.95;;
68178;SDS011;54998;42.656;23.382;2022-11-20T05:31:58;3.33;;;1.30;;
68178;SDS011;54998;42.656;23.382;2022-11-20T05:34:23;2.10;;;1.30;;
68178;SDS011;54998;42.656;23.382;2022-11-20T05:36:49;4.20;;;1.48;;
68178;SDS011;54998;42.656;23.382;2022-11-20T05:39:14;2.15;;;0.85;;
68178;SDS011;54998;42.656;23.382;2022-11-20T05:41:40;2.38;;;0.95;;
68178;SDS011;54998;42.656;23.382;2022-11-20T05:44:05;4.63;;;1.30;;
68178;SDS011;54998;42.656;23.382;2022-11-20T05:46:30;2.03;;;1.20;;
68178;SDS011;54998;42.656;23.382;2022-11-20T05:48:56;3.10;;;0.90;;
68178;SDS011;54998;42.656;23.382;2022-11-20T05:51:22;3.70;;;1.33;;
68178;SDS011;54998;42.656;23.382;2022-11-20T05:53:48;4.28;;;1.35;;
68178;SDS011;54998;42.656;23.382;2022-11-20T05:56:15;3.15;;;1.35;;
68178;SDS011;54998;42.656;23.382;2022-11-20T05:58:43;1.67;;;1.05;;
68178;SDS011;54998;42.656;23.382;2022-11-20T06:03:33;1.83;;;1.30;;
68178;SDS011;54998;42.656;23.382;2022-11-20T06:05:59;2.95;;;1.40;;
68178;SDS011;54998;42.656;23.382;2022-11-20T06:08:25;3.58;;;1.27;;
68178;SDS011;54998;42.656;23.382;2022-11-20T06:10:50;4.35;;;1.30;;
68178;SDS011;54998;42.656;23.382;2022-11-20T06:13:16;2.83;;;1.50;;
68178;SDS011;54998;42.656;23.382;2022-11-20T06:15:41;4.78;;;1.33;;
68178;SDS011;54998;42.656;23.382;2022-11-20T06:18:06;2.75;;;1.45;;
68178;SDS011;54998;42.656;23.382;2022-11-20T06:20:32;3.17;;;1.40;;
68178;SDS011;54998;42.656;23.382;2022-11-20T06:22:57;2.95;;;1.73;;
68178;SDS011;54998;42.656;23.382;2022-11-20T06:25:22;4.68;;;1.17;;
68178;SDS011;54998;42.656;23.382;2022-11-20T06:27:48;3.15;;;1.20;;
68178;SDS011;54998;42.656;23.382;2022-11-20T06:30:13;5.90;;;2.03;;
68178;SDS011;54998;42.656;23.382;2022-11-20T06:32:39;7.15;;;1.80;;
68178;SDS011;54998;42.656;23.382;2022-11-20T06:35:04;4.63;;;1.77;;
68178;SDS011;54998;42.656;23.382;2022-11-20T06:37:30;3.42;;;1.35;;
68178;SDS011;54998;42.656;23.382;2022-11-20T06:39:55;6.78;;;3.35;;
68178;SDS011;54998;42.656;23.382;2022-11-20T06:42:21;3.75;;;1.70;;
68178;SDS011;54998;42.656;23.382;2022-11-20T06:44:46;4.90;;;1.50;;
68178;SDS011;54998;42.656;23.382;2022-11-20T06:47:11;3.42;;;1.67;;
68178;SDS011;54998;42.656;23.382;2022-11-20T06:49:37;6.80;;;1.90;;
68178;SDS011;54998;42.656;23.382;2022-11-20T06:52:03;3.08;;;1.30;;
68178;SDS011;54998;42.656;23.382;2022-11-20T06:54:29;6.05;;;1.80;;
68178;SDS011;54998;42.656;23.382;2022-11-20T06:56:54;3.90;;;1.00;;
68178;SDS011;54998;42.656;23.382;2022-11-20T06:59:20;3.83;;;1.80;;
68178;SDS011;54998;42.656;23.382;2022-11-20T07:01:46;6.97;;;2.17;;
68178;SDS011;54998;42.656;23.382;2022-11-20T07:04:11;8.88;;;2.33;;
68178;SDS011;54998;42.656;23.382;2022-11-20T07:06:37;8.25;;;2.50;;
68178;SDS011;54998;42.656;23.382;2022-11-20T07:09:02;9.25;;;2.75;;
68178;SDS011;54998;42.656;23.382;2022-11-20T07:11:27;10.77;;;5.20;;
68178;SDS011;54998;42.656;23.382;2022-11-20T07:13:53;6.80;;;3.28;;
68178;SDS011;54998;42.656;23.382;2022-11-20T07:16:18;5.00;;;2.35;;
68178;SDS011;54998;42.656;23.382;2022-11-20T07:18:44;10.40;;;3.10;;
68178;SDS011;54998;42.656;23.382;2022-11-20T07:21:09;3.10;;;1.20;;
68178;SDS011;54998;42.656;23.382;2022-11-20T07:23:35;4.50;;;1.58;;
68178;SDS011;54998;42.656;23.382;2022-11-20T07:26:05;4.90;;;1.80;;
68178;SDS011;54998;42.656;23.382;2022-11-20T07:28:31;3.55;;;1.15;;
68178;SDS011;54998;42.656;23.382;2022-11-20T07:30:57;4.70;;;1.00;;
68178;SDS011;54998;42.656;23.382;2022-11-20T07:33:23;3.40;;;1.70;;
68178;SDS011;54998;42.656;23.382;2022-11-20T07:35:48;3.33;;;1.20;;
68178;SDS011;54998;42.656;23.382;2022-11-20T07:38:14;4.20;;;1.30;;
68178;SDS011;54998;42.656;23.382;2022-11-20T07:40:39;3.92;;;1.90;;
68178;SDS011;54998;42.656;23.382;2022-11-20T07:43:05;2.75;;;1.90;;
68178;SDS011;54998;42.656;23.382;2022-11-20T07:45:30;3.63;;;1.15;;
68178;SDS011;54998;42.656;23.382;2022-11-20T07:47:55;4.13;;;1.10;;
68178;SDS011;54998;42.656;23.382;2022-11-20T07:50:21;4.55;;;1.25;;
68178;SDS011;54998;42.656;23.382;2022-11-20T07:52:46;3.15;;;1.23;;
68178;SDS011;54998;42.656;23.382;2022-11-20T07:55:12;4.57;;;1.48;;
68178;SDS011;54998;42.656;23.382;2022-11-20T07:57:38;4.57;;;1.70;;
68178;SDS011;54998;42.656;23.382;2022-11-20T08:00:04;4.88;;;1.92;;
68178;SDS011;54998;42.656;23.382;2022-11-20T08:02:32;4.15;;;1.50;;
68178;SDS011;54998;42.656;23.382;2022-11-20T08:04:57;6.63;;;1.77;;
68178;SDS011;54998;42.656;23.382;2022-11-20T08:07:22;4.15;;;1.20;;
68178;SDS011;54998;42.656;23.382;2022-11-20T08:09:48;3.20;;;1.50;;
68178;SDS011;54998;42.656;23.382;2022-11-20T08:12:17;4.70;;;1.45;;
68178;SDS011;54998;42.656;23.382;2022-11-20T08:15:03;3.83;;;1.30;;
68178;SDS011;54998;42.656;23.382;2022-11-20T08:17:29;2.83;;;0.88;;
68178;SDS011;54998;42.656;23.382;2022-11-20T08:19:55;2.60;;;1.52;;
68178;SDS011;54998;42.656;23.382;2022-11-20T08:22:20;7.28;;;1.50;;
68178;SDS011;54998;42.656;23.382;2022-11-20T08:24:46;3.88;;;1.30;;
68178;SDS011;54998;42.656;23.382;2022-11-20T08:27:12;3.72;;;1.02;;
68178;SDS011;54998;42.656;23.382;2022-11-20T08:29:38;4.13;;;1.40;;
68178;SDS011;54998;42.656;23.382;2022-11-20T08:32:03;4.88;;;1.50;;
68178;SDS011;54998;42.656;23.382;2022-11-20T08:34:29;3.70;;;1.40;;
68178;SDS011;54998;42.656;23.382;2022-11-20T08:36:54;6.88;;;1.10;;
68178;SDS011;54998;42.656;23.382;2022-11-20T08:39:19;3.42;;;1.10;;
68178;SDS011;54998;42.656;23.382;2022-11-20T08:41:45;3.20;;;1.23;;
68178;SDS011;54998;42.656;23.382;2022-11-20T08:44:10;2.20;;;0.75;;
68178;SDS011;54998;42.656;23.382;2022-11-20T08:46:36;5.03;;;1.45;;
68178;SDS011;54998;42.656;23.382;2022-11-20T08:49:04;7.32;;;1.38;;
68178;SDS011;54998;42.656;23.382;2022-11-20T08:51:31;3.00;;;1.30;;
68178;SDS011;54998;42.656;23.382;2022-11-20T08:53:57;5.45;;;1.40;;
68178;SDS011;54998;42.656;23.382;2022-11-20T08:56:22;7.20;;;1.70;;
68178;SDS011;54998;42.656;23.382;2022-11-20T08:58:49;6.60;;;1.77;;
68178;SDS011;54998;42.656;23.382;2022-11-20T09:01:15;3.25;;;1.63;;
68178;SDS011;54998;42.656;23.382;2022-11-20T09:03:40;3.45;;;1.50;;
68178;SDS011;54998;42.656;23.382;2022-11-20T09:06:06;6.50;;;1.80;;
68178;SDS011;54998;42.656;23.382;2022-11-20T09:08:33;6.85;;;1.92;;
68178;SDS011;54998;42.656;23.382;2022-11-20T09:10:59;4.07;;;1.95;;
68178;SDS011;54998;42.656;23.382;2022-11-20T09:13:25;5.40;;;2.17;;
68178;SDS011;54998;42.656;23.382;2022-11-20T09:15:53;4.40;;;1.73;;
68178;SDS011;54998;42.656;23.382;2022-11-20T09:18:20;4.47;;;2.50;;
68178;SDS011;54998;42.656;23.382;2022-11-20T09:20:45;7.72;;;2.72;;
68178;SDS011;54998;42.656;23.382;2022-11-20T09:23:11;9.30;;;3.17;;
68178;SDS011;54998;42.656;23.382;2022-11-20T09:25:36;6.82;;;2.88;;
68178;SDS011;54998;42.656;23.382;2022-11-20T09:28:01;5.60;;;2.88;;
68178;SDS011;54998;42.656;23.382;2022-11-20T09:30:27;3.00;;;1.80;;
68178;SDS011;54998;42.656;23.382;2022-11-20T09:32:52;4.13;;;1.60;;
68178;SDS011;54998;42.656;23.382;2022-11-20T09:35:18;3.25;;;1.55;;
68178;SDS011;54998;42.656;23.382;2022-11-20T09:37:43;1.63;;;1.10;;
68178;SDS011;54998;42.656;23.382;2022-11-20T09:40:30;1.80;;;1.38;;
68178;SDS011;54998;42.656;23.382;2022-11-20T09:42:57;2.58;;;1.20;;
68178;SDS011;54998;42.656;23.382;2022-11-20T09:45:36;2.53;;;1.25;;
68178;SDS011;54998;42.656;23.382;2022-11-20T09:48:20;4.28;;;1.15;;
68178;SDS011;54998;42.656;23.382;2022-11-20T09:51:09;4.15;;;1.75;;
68178;SDS011;54998;42.656;23.382;2022-11-20T09:56:10;25.35;;;13.35;;
68178;SDS011;54998;42.656;23.382;2022-11-20T09:58:42;3.03;;;2.05;;
68178;SDS011;54998;42.656;23.382;2022-11-20T10:01:18;4.20;;;1.20;;
68178;SDS011;54998;42.656;23.382;2022-11-20T10:06:15;1.75;;;1.38;;
68178;SDS011;54998;42.656;23.382;2022-11-20T10:08:48;3.08;;;1.13;;
68178;SDS011;54998;42.656;23.382;2022-11-20T10:17:08;3.45;;;1.90;;
68178;SDS011;54998;42.656;23.382;2022-11-20T10:22:40;4.85;;;1.85;;
68178;SDS011;54998;42.656;23.382;2022-11-20T10:27:56;3.45;;;2.08;;
68178;SDS011;54998;42.656;23.382;2022-11-20T10:30:55;3.78;;;2.25;;
68178;SDS011;54998;42.656;23.382;2022-11-20T10:33:25;6.82;;;2.58;;
68178;SDS011;54998;42.656;23.382;2022-11-20T10:36:04;6.60;;;2.70;;
68178;SDS011;54998;42.656;23.382;2022-11-20T10:38:37;4.13;;;2.08;;
68178;SDS011;54998;42.656;23.382;2022-11-20T10:41:12;5.13;;;3.30;;
68178;SDS011;54998;42.656;23.382;2022-11-20T10:43:52;7.00;;;3.42;;
68178;SDS011;54998;42.656;23.382;2022-11-20T10:46:25;11.05;;;3.95;;
68178;SDS011;54998;42.656;23.382;2022-11-20T10:48:55;8.68;;;3.67;;
68178;SDS011;54998;42.656;23.382;2022-11-20T11:02:37;8.57;;;2.92;;
68178;SDS011;54998;42.656;23.382;2022-11-20T11:05:10;9.13;;;4.00;;
68178;SDS011;54998;42.656;23.382;2022-11-20T11:07:51;9.57;;;3.55;;
68178;SDS011;54998;42.656;23.382;2022-11-20T11:10:24;7.32;;;3.63;;
68178;SDS011;54998;42.656;23.382;2022-11-20T11:13:18;7.05;;;3.95;;
68178;SDS011;54998;42.656;23.382;2022-11-20T11:15:45;7.47;;;4.00;;
68178;SDS011;54998;42.656;23.382;2022-11-20T11:18:11;11.30;;;4.68;;
68178;SDS011;54998;42.656;23.382;2022-11-20T11:20:36;11.63;;;4.38;;
68178;SDS011;54998;42.656;23.382;2022-11-20T11:23:02;10.93;;;3.53;;
68178;SDS011;54998;42.656;23.382;2022-11-20T11:25:30;10.50;;;3.75;;
68178;SDS011;54998;42.656;23.382;2022-11-20T11:28:01;6.20;;;3.35;;
68178;SDS011;54998;42.656;23.382;2022-11-20T11:30:45;6.10;;;3.25;;
68178;SDS011;54998;42.656;23.382;2022-11-20T11:33:17;4.65;;;2.30;;
68178;SDS011;54998;42.656;23.382;2022-11-20T11:35:45;3.80;;;1.23;;
68178;SDS011;54998;42.656;23.382;2022-11-20T11:38:19;1.58;;;0.73;;
68178;SDS011;54998;42.656;23.382;2022-11-20T11:40:48;1.67;;;0.95;;
68178;SDS011;54998;42.656;23.382;2022-11-20T11:43:17;0.80;;;0.77;;
68178;SDS011;54998;42.656;23.382;2022-11-20T11:49:11;1.55;;;0.70;;
68178;SDS011;54998;42.656;23.382;2022-11-20T11:52:04;2.55;;;1.00;;
68178;SDS011;54998;42.656;23.382;2022-11-20T11:54:34;1.48;;;0.80;;
68178;SDS011;54998;42.656;23.382;2022-11-20T11:57:08;2.13;;;1.00;;
68178;SDS011;54998;42.656;23.382;2022-11-20T12:02:39;5.63;;;1.40;;
68178;SDS011;54998;42.656;23.382;2022-11-20T12:08:18;22.95;;;12.93;;
68178;SDS011;54998;42.656;23.382;2022-11-20T12:13:40;8.52;;;1.50;;
68178;SDS011;54998;42.656;23.382;2022-11-20T12:16:13;1.70;;;0.70;;
68178;SDS011;54998;42.656;23.382;2022-11-20T12:18:40;1.60;;;0.40;;
68178;SDS011;54998;42.656;23.382;2022-11-20T12:37:15;0.50;;;0.30;;
68178;SDS011;54998;42.656;23.382;2022-11-20T12:39:51;1.30;;;0.95;;
68178;SDS011;54998;42.656;23.382;2022-11-20T12:42:25;1.70;;;0.90;;
68178;SDS011;54998;42.656;23.382;2022-11-20T12:48:22;2.42;;;1.00;;
68178;SDS011;54998;42.656;23.382;2022-11-20T13:04:13;3.83;;;1.00;;
68178;SDS011;54998;42.656;23.382;2022-11-20T13:06:42;1.52;;;0.80;;
68178;SDS011;54998;42.656;23.382;2022-11-20T13:09:10;6.07;;;0.77;;
68178;SDS011;54998;42.656;23.382;2022-11-20T13:12:01;1.92;;;1.10;;
68178;SDS011;54998;42.656;23.382;2022-11-20T13:20:12;5.57;;;1.02;;
68178;SDS011;54998;42.656;23.382;2022-11-20T13:22:45;6.43;;;2.03;;
68178;SDS011;54998;42.656;23.382;2022-11-20T13:27:52;3.88;;;2.17;;
68178;SDS011;54998;42.656;23.382;2022-11-20T13:30:20;6.35;;;2.75;;
68178;SDS011;54998;42.656;23.382;2022-11-20T13:32:48;5.97;;;3.53;;
68178;SDS011;54998;42.656;23.382;2022-11-20T13:35:23;7.20;;;2.83;;
68178;SDS011;54998;42.656;23.382;2022-11-20T13:37:58;5.07;;;1.95;;
68178;SDS011;54998;42.656;23.382;2022-11-20T13:40:25;3.65;;;1.73;;
68178;SDS011;54998;42.656;23.382;2022-11-20T13:42:54;4.28;;;1.90;;
68178;SDS011;54998;42.656;23.382;2022-11-20T13:45:26;7.00;;;1.92;;
68178;SDS011;54998;42.656;23.382;2022-11-20T13:47:54;6.85;;;2.08;;
68178;SDS011;54998;42.656;23.382;2022-11-20T13:50:21;5.07;;;1.55;;
68178;SDS011;54998;42.656;23.382;2022-11-20T13:53:04;5.25;;;2.35;;
68178;SDS011;54998;42.656;23.382;2022-11-20T14:00:34;7.15;;;2.13;;
68178;SDS011;54998;42.656;23.382;2022-11-20T14:03:15;8.13;;;2.28;;
68178;SDS011;54998;42.656;23.382;2022-11-20T14:05:52;8.45;;;2.55;;
68178;SDS011;54998;42.656;23.382;2022-11-20T14:08:32;8.10;;;2.58;;
68178;SDS011;54998;42.656;23.382;2022-11-20T14:13:55;8.25;;;2.83;;
68178;SDS011;54998;42.656;23.382;2022-11-20T14:16:25;6.85;;;2.97;;
68178;SDS011;54998;42.656;23.382;2022-11-20T14:18:52;5.68;;;2.97;;
68178;SDS011;54998;42.656;23.382;2022-11-20T14:24:03;9.68;;;3.40;;
68178;SDS011;54998;42.656;23.382;2022-11-20T14:26:29;8.95;;;3.47;;
68178;SDS011;54998;42.656;23.382;2022-11-20T14:28:55;7.70;;;3.10;;
68178;SDS011;54998;42.656;23.382;2022-11-20T14:31:23;5.50;;;2.97;;
68178;SDS011;54998;42.656;23.382;2022-11-20T14:33:50;6.03;;;3.65;;
68178;SDS011;54998;42.656;23.382;2022-11-20T14:36:18;7.95;;;3.80;;
68178;SDS011;54998;42.656;23.382;2022-11-20T14:38:46;8.60;;;3.05;;
68178;SDS011;54998;42.656;23.382;2022-11-20T14:41:16;8.65;;;3.22;;
68178;SDS011;54998;42.656;23.382;2022-11-20T14:43:56;7.55;;;3.40;;
68178;SDS011;54998;42.656;23.382;2022-11-20T14:46:22;8.43;;;3.60;;
68178;SDS011;54998;42.656;23.382;2022-11-20T14:48:49;6.20;;;2.72;;
68178;SDS011;54998;42.656;23.382;2022-11-20T15:15:21;11.45;;;3.92;;
68178;SDS011;54998;42.656;23.382;2022-11-20T15:17:52;8.25;;;4.05;;
68178;SDS011;54998;42.656;23.382;2022-11-20T15:20:18;10.23;;;3.80;;
68178;SDS011;54998;42.656;23.382;2022-11-20T15:22:44;8.57;;;4.25;;
68178;SDS011;54998;42.656;23.382;2022-11-20T15:25:16;5.25;;;2.72;;
68178;SDS011;54998;42.656;23.382;2022-11-20T15:27:42;5.75;;;3.53;;
68178;SDS011;54998;42.656;23.382;2022-11-20T15:30:16;6.80;;;2.50;;
68178;SDS011;54998;42.656;23.382;2022-11-20T15:32:44;4.85;;;2.33;;
68178;SDS011;54998;42.656;23.382;2022-11-20T15:35:11;4.53;;;2.20;;
68178;SDS011;54998;42.656;23.382;2022-11-20T15:37:38;3.83;;;2.13;;
68178;SDS011;54998;42.656;23.382;2022-11-20T15:40:04;13.27;;;5.95;;
68178;SDS011;54998;42.656;23.382;2022-11-20T15:42:30;7.55;;;2.90;;
68178;SDS011;54998;42.656;23.382;2022-11-20T15:44:56;3.60;;;2.08;;
68178;SDS011;54998;42.656;23.382;2022-11-20T15:47:24;4.10;;;1.70;;
68178;SDS011;54998;42.656;23.382;2022-11-20T15:49:53;3.28;;;1.65;;
68178;SDS011;54998;42.656;23.382;2022-11-20T15:52:18;4.57;;;1.92;;
68178;SDS011;54998;42.656;23.382;2022-11-20T15:54:44;3.05;;;1.55;;
68178;SDS011;54998;42.656;23.382;2022-11-20T15:57:09;4.70;;;2.05;;
68178;SDS011;54998;42.656;23.382;2022-11-20T15:59:34;5.80;;;2.25;;
68178;SDS011;54998;42.656;23.382;2022-11-20T16:02:13;3.85;;;1.80;;
68178;SDS011;54998;42.656;23.382;2022-11-20T16:04:39;6.20;;;2.25;;
68178;SDS011;54998;42.656;23.382;2022-11-20T16:07:12;3.95;;;2.00;;
68178;SDS011;54998;42.656;23.382;2022-11-20T16:09:40;3.30;;;1.80;;
68178;SDS011;54998;42.656;23.382;2022-11-20T16:12:07;3.45;;;1.50;;
68178;SDS011;54998;42.656;23.382;2022-11-20T16:14:54;4.88;;;1.83;;
68178;SDS011;54998;42.656;23.382;2022-11-20T16:17:38;4.18;;;1.85;;
68178;SDS011;54998;42.656;23.382;2022-11-20T16:20:10;1.95;;;1.10;;
68178;SDS011;54998;42.656;23.382;2022-11-20T16:22:36;4.53;;;1.52;;
68178;SDS011;54998;42.656;23.382;2022-11-20T16:25:02;3.42;;;1.58;;
68178;SDS011;54998;42.656;23.382;2022-11-20T16:29:54;7.13;;;1.60;;
68178;SDS011;54998;42.656;23.382;2022-11-20T16:32:19;3.95;;;2.08;;
68178;SDS011;54998;42.656;23.382;2022-11-20T16:34:45;5.53;;;2.30;;
68178;SDS011;54998;42.656;23.382;2022-11-20T16:37:10;4.85;;;2.95;;
68178;SDS011;54998;42.656;23.382;2022-11-20T16:39:36;6.45;;;2.92;;
68178;SDS011;54998;42.656;23.382;2022-11-20T16:42:03;4.85;;;2.85;;
68178;SDS011;54998;42.656;23.382;2022-11-20T16:44:29;9.25;;;3.95;;
68178;SDS011;54998;42.656;23.382;2022-11-20T16:46:54;9.27;;;3.72;;
68178;SDS011;54998;42.656;23.382;2022-11-20T16:49:20;10.27;;;4.40;;
68178;SDS011;54998;42.656;23.382;2022-11-20T16:51:45;10.00;;;4.20;;
68178;SDS011;54998;42.656;23.382;2022-11-20T16:54:11;8.38;;;3.70;;